Time;durP1;ratioP1;P1;durP2;ratioP2;P2;SDS_P1;SDS_P2;PMS_P1;PMS_P2;Temp;Humidity;BMP_temperature;BMP_pressure;BME280_temperature;BME280_humidity;BME280_pressure;Samples;Min_cycle;Max_cycle;Signal;HPM_P1;HPM_P2
2023/01/20 00:01:36;;;;;;;74.23;38.43;;;;;;;2.64;58.86;99670.75;5040402;27;101268;-85
2023/01/20 00:04:02;;;;;;;81.67;40.00;;;;;;;2.67;58.52;99673.31;5057880;27;97369;-86
2023/01/20 00:06:28;;;;;;;79.23;41.13;;;;;;;2.65;58.81;99666.47;5039634;27;96754;-83
2023/01/20 00:08:56;;;;;;;87.93;43.07;;;;;;;2.62;58.98;99671.69;5045864;27;97009;-84
2023/01/20 00:11:22;;;;;;;81.93;40.97;;;;;;;2.51;58.75;99647.63;5054986;27;101272;-86
2023/01/20 00:13:48;;;;;;;83.47;42.47;;;;;;;2.65;58.80;99669.91;5040291;27;101546;-85
2023/01/20 00:16:33;;;;;;;86.50;41.80;;;;;;;2.53;59.17;99651.03;5040724;27;96529;-86
2023/01/20 00:18:59;;;;;;;83.67;42.93;;;;;;;2.57;59.16;99663.94;5038601;27;96989;-83
2023/01/20 00:21:24;;;;;;;83.43;41.47;;;;;;;2.60;59.45;99665.66;5051395;27;100950;-88
2023/01/20 00:23:50;;;;;;;87.30;42.37;;;;;;;2.54;59.09;99666.59;5052370;27;101459;-85
2023/01/20 00:26:21;;;;;;;90.40;41.97;;;;;;;2.48;59.49;99670.09;5055383;27;96715;-85
2023/01/20 00:28:47;;;;;;;81.13;40.60;;;;;;;2.47;59.38;99664.91;5047605;27;97782;-84
2023/01/20 00:31:17;;;;;;;78.70;40.07;;;;;;;2.34;59.02;99646.09;5054306;27;101582;-86
2023/01/20 00:33:43;;;;;;;86.50;42.57;;;;;;;2.37;59.39;99656.41;5073364;27;97874;-86
2023/01/20 00:36:34;;;;;;;87.40;43.43;;;;;;;2.47;59.44;99672.69;5040803;27;96746;-86
2023/01/20 00:39:01;;;;;;;82.00;41.77;;;;;;;2.39;59.07;99661.59;5056966;27;96827;-86
2023/01/20 00:41:27;;;;;;;80.30;43.43;;;;;;;2.39;59.34;99662.44;5042341;27;100436;-85
2023/01/20 00:43:52;;;;;;;88.87;43.00;;;;;;;2.41;59.32;99670.16;5059977;27;100950;-86
2023/01/20 00:46:18;;;;;;;84.83;44.07;;;;;;;2.37;59.44;99674.53;5059978;27;96678;-86
2023/01/20 00:48:43;;;;;;;89.83;44.03;;;;;;;2.28;59.66;99661.69;5059307;27;96739;-86
2023/01/20 00:51:09;;;;;;;82.23;41.10;;;;;;;2.34;59.20;99676.31;5056854;27;97002;-85
2023/01/20 00:53:35;;;;;;;88.40;43.47;;;;;;;2.34;59.53;99687.53;5056639;27;101053;-86
2023/01/20 00:56:01;;;;;;;79.40;39.37;;;;;;;2.24;59.35;99671.22;5037567;27;96957;-87
2023/01/20 00:58:27;;;;;;;81.23;41.23;;;;;;;2.34;59.46;99687.53;5056933;27;96901;-87
2023/01/20 01:00:54;;;;;;;82.80;41.90;;;;;;;2.18;59.45;99665.25;5056691;27;98058;-86
2023/01/20 01:03:20;;;;;;;83.03;40.80;;;;;;;2.34;59.48;99695.28;5056340;27;100895;-86
2023/01/20 01:05:46;;;;;;;82.87;42.03;;;;;;;2.19;59.67;99669.56;5056742;27;96742;-87
2023/01/20 01:08:12;;;;;;;80.80;41.23;;;;;;;2.22;59.45;99685.06;5039512;27;96917;-86
2023/01/20 01:10:39;;;;;;;81.33;40.43;;;;;;;2.18;59.38;99683.38;5056210;27;101396;-86
2023/01/20 01:13:05;;;;;;;85.37;40.63;;;;;;;2.25;59.03;99698.84;5056990;27;101815;-86
2023/01/20 01:15:30;;;;;;;87.90;42.50;;;;;;;2.28;59.57;99707.47;5073977;27;96775;-86
2023/01/20 01:21:20;;;;;;;83.00;41.00;;;;;;;2.06;59.25;99680.91;5069721;27;101194;-87
2023/01/20 01:23:46;;;;;;;88.70;40.10;;;;;;;2.20;59.79;99694.56;5052687;27;98022;-85
2023/01/20 01:26:12;;;;;;;84.87;39.57;;;;;;;2.18;59.24;99698.91;5057303;27;96778;-86
2023/01/20 01:28:38;;;;;;;82.20;39.97;;;;;;;2.12;59.62;99689.47;5056155;27;96818;-87
2023/01/20 01:31:05;;;;;;;76.47;38.27;;;;;;;1.98;59.21;99676.66;5056059;27;97991;-86
2023/01/20 01:33:32;;;;;;;79.30;37.03;;;;;;;2.04;59.72;99686.97;5055710;27;101865;-86
2023/01/20 01:35:59;;;;;;;79.90;39.07;;;;;;;2.08;59.95;99685.19;5039311;27;97048;-86
2023/01/20 01:38:25;;;;;;;74.57;38.13;;;;;;;2.15;59.60;99704.13;5056482;27;96793;-86
2023/01/20 01:40:52;;;;;;;87.33;39.50;;;;;;;2.09;59.72;99702.44;5039049;27;100261;-86
2023/01/20 01:43:24;;;;;;;78.90;37.80;;;;;;;2.12;59.55;99693.78;5036594;27;101336;-86
2023/01/20 01:49:20;;;;;;;79.53;38.07;;;;;;;2.03;59.89;99697.31;5073338;27;96626;-85
2023/01/20 01:52:14;;;;;;;81.33;38.73;;;;;;;2.08;60.28;99710.25;5055938;27;101205;-86
2023/01/20 01:54:42;;;;;;;84.03;37.73;;;;;;;2.04;59.75;99702.50;5055666;27;101739;-87
2023/01/20 01:57:08;;;;;;;79.53;38.00;;;;;;;2.08;60.52;99713.69;5057073;27;96742;-85
2023/01/20 01:59:34;;;;;;;74.77;37.13;;;;;;;1.99;60.61;99698.22;5075423;27;97090;-85
2023/01/20 02:02:00;;;;;;;80.43;37.47;;;;;;;1.99;60.42;99701.69;5044029;27;101357;-85
2023/01/20 02:04:26;;;;;;;76.17;36.60;;;;;;;1.94;60.42;99703.44;5063880;27;100756;-86
2023/01/20 02:07:02;;;;;;;81.37;40.43;;;;;;;2.08;60.24;99725.78;5078804;27;97079;-89
2023/01/20 02:09:28;;;;;;;79.60;38.33;;;;;;;2.08;60.43;99724.03;5044592;27;96694;-85
2023/01/20 02:11:56;;;;;;;76.50;37.90;;;;;;;2.10;60.34;99722.31;5054547;27;101569;-85
2023/01/20 02:14:25;;;;;;;78.40;36.20;;;;;;;2.07;60.39;99722.31;5054759;27;97909;-86
2023/01/20 02:17:03;;;;;;;83.23;38.20;;;;;;;2.07;60.41;99722.31;5058425;27;96731;-86
2023/01/20 02:19:58;;;;;;;78.97;37.17;;;;;;;2.02;60.47;99717.19;5073958;27;96856;-85
2023/01/20 02:22:43;;;;;;;68.77;36.37;;;;;;;2.07;60.37;99726.66;5057796;27;97556;-85
2023/01/20 02:25:15;;;;;;;77.97;37.73;;;;;;;2.09;60.64;99728.34;5069567;27;97055;-85
2023/01/20 02:28:05;;;;;;;76.10;37.38;;;;;;;2.08;60.70;99728.34;5051857;27;97094;-85
2023/01/20 02:31:02;;;;;;;73.37;35.70;;;;;;;2.08;60.90;99733.53;5056995;27;96746;-85
2023/01/20 02:33:42;;;;;;;79.97;36.87;;;;;;;2.07;60.73;99735.28;5069970;27;98323;-85
2023/01/20 02:36:16;;;;;;;84.70;35.63;;;;;;;1.96;60.93;99724.16;5040380;27;101106;-84
2023/01/20 02:38:46;;;;;;;72.17;35.67;;;;;;;2.04;60.53;99741.34;5037259;27;96823;-85
2023/01/20 02:41:14;;;;;;;75.10;36.03;;;;;;;2.07;61.22;99747.38;5057397;27;96720;-86
2023/01/20 02:43:56;;;;;;;76.20;36.03;;;;;;;2.05;61.26;99742.19;5040447;27;102038;-85
2023/01/20 02:46:32;;;;;;;75.47;36.75;;;;;;;2.04;60.70;99746.50;5059223;27;99999;-85
2023/01/20 02:49:00;;;;;;;72.20;36.37;;;;;;;1.91;60.63;99726.75;5041847;27;97152;-86
2023/01/20 02:51:30;;;;;;;71.23;36.23;;;;;;;2.03;61.04;99749.09;5051346;27;96871;-84
2023/01/20 02:54:00;;;;;;;75.50;36.73;;;;;;;1.88;60.84;99721.63;5040941;27;102122;-85
2023/01/20 02:56:28;;;;;;;74.10;37.50;;;;;;;1.93;60.96;99732.78;5056202;27;99705;-86
2023/01/20 02:59:10;;;;;;;74.83;37.20;;;;;;;2.06;60.91;99754.25;5039036;27;96907;-85
2023/01/20 03:01:40;;;;;;;;;;;;;;;2.05;60.81;99747.38;5056954;27;97089;-87
2023/01/20 03:04:08;;;;;;;79.57;37.00;;;;;;;2.01;60.89;99745.69;5062702;27;101566;-86
2023/01/20 03:06:36;;;;;;;78.20;38.67;;;;;;;2.04;60.75;99746.50;5070126;27;101379;-84
2023/01/20 03:09:06;;;;;;;71.20;36.40;;;;;;;2.08;61.21;99749.94;5052963;27;96998;-87
2023/01/20 03:11:33;;;;;;;76.80;38.10;;;;;;;1.91;61.29;99724.19;5073990;27;96724;-87
2023/01/20 03:14:04;;;;;;;81.57;38.27;;;;;;;2.01;61.07;99753.47;5063404;27;98591;-86
2023/01/20 03:16:30;;;;;;;82.40;41.13;;;;;;;2.01;61.08;99751.72;5039809;27;101278;-86
2023/01/20 03:18:55;;;;;;;82.93;37.60;;;;;;;1.99;61.46;99752.59;5056124;27;97395;-86
2023/01/20 03:21:21;;;;;;;80.43;38.63;;;;;;;2.02;61.18;99770.69;5041029;27;96968;-86
2023/01/20 03:23:50;;;;;;;82.77;38.93;;;;;;;1.78;61.19;99730.34;5060564;27;98023;-87
2023/01/20 03:26:17;;;;;;;77.03;37.57;;;;;;;1.88;61.25;99754.41;5071573;27;101428;-85
2023/01/20 03:28:44;;;;;;;82.47;37.90;;;;;;;1.97;61.14;99778.47;5030381;27;96897;-86
2023/01/20 03:31:12;;;;;;;73.03;37.63;;;;;;;1.77;61.08;99741.53;5040251;27;97160;-89
2023/01/20 03:33:38;;;;;;;75.13;36.83;;;;;;;1.93;61.32;99771.63;5058971;27;101688;-86
2023/01/20 03:36:04;;;;;;;75.53;38.23;;;;;;;1.97;61.64;99799.19;5056342;27;101283;-86
2023/01/20 03:38:30;;;;;;;81.30;39.10;;;;;;;1.94;61.44;99794.03;5057032;27;97023;-85
2023/01/20 03:41:04;;;;;;;80.43;41.10;;;;;;;1.94;61.53;99783.69;5056394;27;96847;-85
2023/01/20 03:43:44;;;;;;;79.33;38.57;;;;;;;1.94;61.26;99799.22;5056692;27;101631;-85
2023/01/20 03:46:19;;;;;;;78.33;38.83;;;;;;;1.88;61.36;99794.09;5057423;27;97865;-86
2023/01/20 03:48:52;;;;;;;78.70;39.63;;;;;;;1.91;61.47;99801.84;5040055;27;96759;-85
2023/01/20 03:51:20;;;;;;;83.63;38.60;;;;;;;1.78;61.24;99782.09;5056745;27;96831;-85
2023/01/20 03:53:51;;;;;;;86.17;41.33;;;;;;;1.88;61.45;99808.75;5056156;27;100730;-89
2023/01/20 03:56:38;;;;;;;81.73;41.67;;;;;;;1.87;61.98;99817.41;5056694;27;98079;-86
2023/01/20 03:59:03;;;;;;;82.70;40.13;;;;;;;1.85;61.52;99816.56;5039370;27;96826;-85
2023/01/20 04:01:33;;;;;;;78.30;39.90;;;;;;;1.79;61.67;99813.13;5056097;27;96829;-85
2023/01/20 04:03:59;;;;;;;77.00;41.40;;;;;;;1.75;61.84;99816.63;5056054;27;100868;-85
2023/01/20 04:06:25;;;;;;;79.97;40.57;;;;;;;1.73;61.58;99812.31;5054001;27;99780;-86
2023/01/20 04:08:57;;;;;;;82.23;41.43;;;;;;;1.66;61.47;99800.28;5056213;27;96782;-85
2023/01/20 04:11:23;;;;;;;84.72;38.97;;;;;;;1.69;61.50;99811.47;5040805;27;96845;-85
2023/01/20 04:13:49;;;;;;;81.77;40.77;;;;;;;1.72;61.18;99827.00;5055740;27;101636;-86
2023/01/20 04:16:16;;;;;;;81.73;41.93;;;;;;;1.65;61.82;99819.25;5055992;27;101635;-85
2023/01/20 04:18:45;;;;;;;80.17;39.40;;;;;;;1.69;61.75;99827.00;5056680;27;97139;-86
2023/01/20 04:21:34;;;;;;;83.60;40.23;;;;;;;1.70;62.15;99836.47;5038049;27;96810;-85
2023/01/20 04:24:03;;;;;;;86.83;40.23;;;;;;;1.59;61.45;99827.91;5057275;27;101151;-85
2023/01/20 04:26:29;;;;;;;84.90;41.03;;;;;;;1.64;61.54;99840.84;5056551;27;100395;-84
2023/01/20 04:28:54;;;;;;;87.03;39.00;;;;;;;1.62;61.76;99850.31;5056726;27;96872;-85
2023/01/20 04:31:20;;;;;;;82.80;41.07;;;;;;;1.48;61.77;99825.38;5074188;27;96889;-85
2023/01/20 04:33:46;;;;;;;82.17;39.77;;;;;;;1.54;61.65;99840.91;5056273;27;100958;-88
2023/01/20 04:36:11;;;;;;;87.50;41.50;;;;;;;1.47;61.47;99828.84;5056231;27;101432;-86
2023/01/20 04:38:37;;;;;;;84.00;38.90;;;;;;;1.45;61.69;99829.72;5073900;27;96981;-85
2023/01/20 04:41:02;;;;;;;84.30;40.67;;;;;;;1.52;61.63;99844.34;5051499;27;96904;-87
2023/01/20 04:43:28;;;;;;;80.30;39.67;;;;;;;1.56;61.79;99848.63;5055681;27;98153;-85
2023/01/20 04:45:53;;;;;;;81.40;39.37;;;;;;;1.50;61.51;99846.06;5053130;27;97247;-85
2023/01/20 04:48:19;;;;;;;80.63;40.83;;;;;;;1.45;61.45;99846.09;5056375;27;97153;-86
2023/01/20 04:50:45;;;;;;;77.10;41.03;;;;;;;1.39;61.72;99835.78;5040722;27;96899;-85
2023/01/20 04:53:12;;;;;;;84.33;41.33;;;;;;;1.45;61.49;99856.44;5053714;27;101661;-87
2023/01/20 04:55:38;;;;;;;87.20;42.23;;;;;;;1.46;61.53;99865.06;5037604;27;101056;-85
2023/01/20 04:58:04;;;;;;;88.10;42.93;;;;;;;1.32;61.34;99865.97;5055398;27;96731;-86
2023/01/20 05:00:29;;;;;;;121.63;52.30;;;;;;;1.40;61.32;99883.19;5048010;27;97357;-85
2023/01/20 05:02:58;;;;;;;101.33;46.23;;;;;;;1.48;61.53;99905.56;5050816;27;100388;-85
2023/01/20 05:05:23;;;;;;;97.60;46.10;;;;;;;1.44;61.23;99897.84;5042727;27;101547;-88
2023/01/20 05:07:53;;;;;;;93.07;43.17;;;;;;;1.48;61.62;99904.72;5063665;27;96741;-86
2023/01/20 05:10:20;;;;;;;87.10;42.43;;;;;;;1.42;61.69;99896.97;5046395;27;96836;-85
2023/01/20 05:12:45;;;;;;;88.33;42.23;;;;;;;1.44;61.93;99898.69;5071857;27;98346;-85
2023/01/20 05:15:11;;;;;;;86.10;42.07;;;;;;;1.41;61.81;99900.44;5037918;27;101222;-85
2023/01/20 05:17:36;;;;;;;92.00;44.77;;;;;;;1.26;61.56;99883.25;5046494;27;97090;-84
2023/01/20 05:20:03;;;;;;;90.03;43.93;;;;;;;1.27;61.91;99887.53;5047333;27;97361;-85
2023/01/20 05:22:31;;;;;;;89.23;44.17;;;;;;;1.43;61.90;99916.81;5055090;27;101802;-85
2023/01/20 05:24:58;;;;;;;88.70;43.07;;;;;;;1.12;62.12;99860.00;5052143;27;98403;-85
2023/01/20 05:27:24;;;;;;;97.87;45.67;;;;;;;1.26;61.93;99889.28;5037534;27;97127;-86
2023/01/20 05:29:49;;;;;;;98.70;48.10;;;;;;;1.43;61.96;99912.50;5055065;27;97311;-88
2023/01/20 05:32:15;;;;;;;107.10;50.87;;;;;;;1.09;61.87;99862.59;5054629;27;100759;-85
2023/01/20 05:34:40;;;;;;;106.03;50.13;;;;;;;1.45;61.88;99920.25;5058350;27;101738;-86
2023/01/20 05:37:06;;;;;;;109.20;54.73;;;;;;;1.39;61.66;99917.69;5058836;27;97077;-84
2023/01/20 05:39:32;;;;;;;109.23;53.80;;;;;;;1.35;62.18;99909.06;5058794;27;96999;-84
2023/01/20 05:41:57;;;;;;;105.33;54.77;;;;;;;1.50;62.39;99936.63;5074270;27;98432;-86
2023/01/20 05:44:23;;;;;;;99.47;50.47;;;;;;;1.41;62.08;99921.13;5045049;27;101655;-87
2023/01/20 05:46:48;;;;;;;96.63;50.87;;;;;;;1.23;62.59;99889.28;5074850;27;96851;-88
2023/01/20 05:49:14;;;;;;;91.70;45.47;;;;;;;1.09;62.45;99860.03;5075718;27;96708;-85
2023/01/20 05:51:40;;;;;;;89.50;43.47;;;;;;;1.50;62.57;99918.50;5049822;27;101426;-86
2023/01/20 05:54:05;;;;;;;92.03;44.00;;;;;;;1.60;62.38;99933.16;5040171;27;101113;-85
2023/01/20 05:56:31;;;;;;;85.67;43.13;;;;;;;1.56;62.66;99931.41;5074839;27;97018;-85
2023/01/20 05:58:56;;;;;;;96.50;42.93;;;;;;;1.50;62.64;99921.94;5057914;27;96930;-85
2023/01/20 06:01:22;;;;;;;94.03;44.17;;;;;;;1.50;62.72;99921.94;5058376;27;100864;-86
2023/01/20 06:03:48;;;;;;;91.33;41.87;;;;;;;1.53;62.97;99921.09;5057244;27;101890;-89
2023/01/20 06:06:14;;;;;;;87.73;43.57;;;;;;;1.61;62.72;99934.00;5062050;27;97221;-87
2023/01/20 06:08:40;;;;;;;91.80;42.67;;;;;;;1.49;63.02;99917.66;5047531;27;97332;-87
2023/01/20 06:11:06;;;;;;;91.67;42.73;;;;;;;1.56;63.04;99924.50;5048133;27;101432;-85
2023/01/20 06:13:31;;;;;;;88.90;42.53;;;;;;;1.54;63.11;99918.50;5060436;27;100316;-86
2023/01/20 06:15:57;;;;;;;88.37;41.90;;;;;;;1.49;62.82;99912.47;5036787;27;98171;-79
2023/01/20 06:18:23;;;;;;;86.40;42.53;;;;;;;1.46;62.69;99898.72;5053167;27;98310;-82
2023/01/20 06:20:48;;;;;;;82.23;39.77;;;;;;;1.43;62.93;99899.56;5070833;27;101008;-82
2023/01/20 06:23:14;;;;;;;79.20;36.97;;;;;;;1.48;62.44;99909.88;5054274;27;102172;-84
2023/01/20 06:25:40;;;;;;;82.53;39.87;;;;;;;1.42;62.93;99908.19;5070465;27;97284;-83
2023/01/20 06:28:07;;;;;;;84.90;40.07;;;;;;;1.45;62.61;99908.16;5049654;27;97556;-83
2023/01/20 06:30:33;;;;;;;75.70;38.57;;;;;;;1.39;63.03;99903.00;5047822;27;101577;-82
2023/01/20 06:32:59;;;;;;;78.80;39.00;;;;;;;1.44;62.91;99915.94;5058858;27;101391;-82
2023/01/20 06:35:25;;;;;;;78.50;38.40;;;;;;;1.39;62.45;99904.75;5054151;27;97412;-81
2023/01/20 06:37:51;;;;;;;79.50;39.60;;;;;;;1.42;62.63;99912.50;5038486;27;96984;-82
2023/01/20 06:40:16;;;;;;;78.07;39.90;;;;;;;1.45;63.16;99915.06;5052885;27;101412;-83
2023/01/20 06:42:42;;;;;;;85.80;40.50;;;;;;;1.54;64.08;99923.69;5061507;27;98388;-82
2023/01/20 06:45:08;;;;;;;77.23;37.90;;;;;;;1.57;63.87;99934.00;5033096;27;97905;-83
2023/01/20 06:47:34;;;;;;;81.43;39.13;;;;;;;1.52;63.60;99927.13;5046805;27;96956;-85
2023/01/20 06:49:59;;;;;;;84.27;41.47;;;;;;;1.53;63.79;99926.25;5036719;27;101960;-83
2023/01/20 06:52:25;;;;;;;73.17;38.30;;;;;;;1.66;63.74;99952.94;5054849;27;99873;-84
2023/01/20 06:54:50;;;;;;;79.63;41.43;;;;;;;1.66;63.88;99948.66;5055993;27;97123;-83
2023/01/20 06:57:16;;;;;;;78.90;39.47;;;;;;;1.67;63.36;99952.09;5061345;27;96951;-83
2023/01/20 06:59:42;;;;;;;83.63;39.83;;;;;;;1.57;63.74;99931.44;5056408;27;100607;-83
2023/01/20 07:02:10;;;;;;;80.17;38.53;;;;;;;1.49;63.39;99921.97;5037177;27;101108;-83
2023/01/20 07:04:35;;;;;;;83.73;40.87;;;;;;;1.66;63.20;99953.81;5052230;27;97121;-83
2023/01/20 07:07:01;;;;;;;72.63;38.07;;;;;;;1.70;63.41;99963.28;5036808;27;97024;-83
2023/01/20 07:09:26;;;;;;;88.00;42.47;;;;;;;1.70;63.34;99962.44;5053002;27;100700;-83
2023/01/20 07:11:52;;;;;;;78.40;38.53;;;;;;;1.57;63.09;99948.66;5038782;27;101128;-82
2023/01/20 07:14:18;;;;;;;85.70;41.77;;;;;;;1.69;62.99;99961.56;5057898;27;96981;-83
2023/01/20 07:16:45;;;;;;;91.93;43.97;;;;;;;1.76;63.30;99975.34;5054814;27;97054;-84
2023/01/20 07:19:11;;;;;;;87.37;43.87;;;;;;;1.79;63.19;99991.72;5036331;27;101528;-82
2023/01/20 07:21:36;;;;;;;85.80;43.87;;;;;;;1.70;63.40;99978.81;5052993;27;98279;-81
2023/01/20 07:24:02;;;;;;;93.63;45.37;;;;;;;1.85;63.33;99997.75;5056437;27;98026;-82
2023/01/20 07:26:28;;;;;;;93.97;43.83;;;;;;;1.81;63.06;100005.53;5054482;27;96984;-82
2023/01/20 07:28:54;;;;;;;82.73;42.70;;;;;;;1.80;63.16;100016.75;5068665;27;97410;-82
2023/01/20 07:31:24;;;;;;;84.73;42.10;;;;;;;1.64;63.02;99983.16;5053171;27;97849;-83
2023/01/20 07:33:49;;;;;;;83.10;41.00;;;;;;;1.87;62.91;100016.72;5037798;27;97139;-83
2023/01/20 07:36:16;;;;;;;88.67;43.47;;;;;;;1.82;62.83;100016.72;5034787;27;97801;-83
2023/01/20 07:38:42;;;;;;;86.00;41.60;;;;;;;1.83;62.57;100021.03;5035703;27;101819;-83
2023/01/20 07:41:14;;;;;;;92.30;46.07;;;;;;;1.77;62.16;100008.97;5036157;27;101858;-88
2023/01/20 07:43:40;;;;;;;89.40;46.63;;;;;;;1.95;62.28;100039.13;5039247;27;97792;-83
2023/01/20 07:46:06;;;;;;;103.63;51.53;;;;;;;2.05;62.22;100052.91;5039243;27;96923;-83
2023/01/20 07:48:32;;;;;;;100.77;49.80;;;;;;;2.13;62.33;100055.47;5035359;27;101442;-83
2023/01/20 07:51:04;;;;;;;91.43;46.63;;;;;;;2.18;61.81;100061.47;5032343;27;100849;-84
2023/01/20 07:53:45;;;;;;;92.25;46.38;;;;;;;2.31;62.13;100059.69;5051811;27;98108;-84
2023/01/20 07:56:15;;;;;;;89.33;45.73;;;;;;;2.48;61.74;100063.94;5058407;27;96818;-84
2023/01/20 07:58:44;;;;;;;94.50;45.60;;;;;;;2.86;61.93;100056.81;5056419;27;101632;-84
2023/01/20 08:01:14;;;;;;;89.60;45.60;;;;;;;3.20;61.04;100051.34;5049273;27;101238;-88
2023/01/20 08:03:41;;;;;;;89.70;44.10;;;;;;;3.49;60.58;100051.09;5052808;27;97190;-90
2023/01/20 08:06:08;;;;;;;84.17;45.07;;;;;;;3.74;59.62;100043.91;5038861;27;97261;-88
2023/01/20 08:08:34;;;;;;;88.13;45.57;;;;;;;3.94;59.19;100049.75;5038325;27;101557;-88
2023/01/20 08:11:01;;;;;;;93.00;46.80;;;;;;;3.95;58.45;100028.09;5054390;27;101105;-85
2023/01/20 08:13:27;;;;;;;87.87;42.60;;;;;;;3.85;58.48;99990.13;5042392;27;97193;-85
2023/01/20 08:15:53;;;;;;;85.33;43.57;;;;;;;4.20;58.03;100027.81;5054797;27;97307;-83
2023/01/20 08:18:18;;;;;;;86.27;43.43;;;;;;;4.38;57.56;100034.50;5054429;27;101206;-84
2023/01/20 08:20:44;;;;;;;84.93;43.27;;;;;;;4.50;57.81;100042.13;5052984;27;100808;-84
2023/01/20 08:23:10;;;;;;;89.97;45.87;;;;;;;4.64;57.25;100058.41;5054073;27;97760;-85
2023/01/20 08:25:35;;;;;;;87.20;45.33;;;;;;;4.69;57.20;100060.94;5040474;27;97023;-87
2023/01/20 08:28:01;;;;;;;87.23;43.77;;;;;;;4.82;56.69;100067.69;5034856;27;101121;-85
2023/01/20 08:30:26;;;;;;;87.07;43.37;;;;;;;4.77;56.23;100069.50;5051331;27;101156;-84
2023/01/20 08:32:52;;;;;;;83.40;40.40;;;;;;;4.87;56.75;100088.44;5052257;27;96910;-86
2023/01/20 08:35:18;;;;;;;91.57;46.80;;;;;;;4.78;56.40;100072.97;5036312;27;97027;-84
2023/01/20 08:37:45;;;;;;;84.17;42.93;;;;;;;5.05;56.62;100093.34;5034295;27;99320;-84
2023/01/20 08:40:11;;;;;;;88.53;44.67;;;;;;;5.12;56.30;100096.72;5050758;27;100978;-84
2023/01/20 08:42:37;;;;;;;87.60;42.07;;;;;;;5.17;56.30;100095.75;5050003;27;96809;-83
2023/01/20 08:45:05;;;;;;;76.70;41.80;;;;;;;5.19;55.80;100086.19;5033824;27;97207;-81
2023/01/20 08:47:34;;;;;;;84.63;42.27;;;;;;;5.38;55.28;100102.41;5050615;27;101344;-83
2023/01/20 08:50:00;;;;;;;74.63;39.10;;;;;;;5.19;54.96;100094.00;5035637;27;100000;-83
2023/01/20 08:52:26;;;;;;;76.00;41.40;;;;;;;5.14;55.41;100097.56;5052012;27;97214;-83
2023/01/20 08:54:52;;;;;;;74.80;38.77;;;;;;;5.08;55.67;100088.09;5066332;27;97917;-84
2023/01/20 08:57:18;;;;;;;77.47;38.87;;;;;;;5.31;55.44;100100.75;5046704;27;101138;-83
2023/01/20 08:59:45;;;;;;;76.90;40.53;;;;;;;5.29;55.52;100083.44;5051877;27;102571;-83
2023/01/20 09:02:11;;;;;;;78.10;39.40;;;;;;;5.47;55.21;100097.91;5054565;27;97151;-83
2023/01/20 09:04:36;;;;;;;76.43;37.63;;;;;;;5.45;54.93;100092.72;5036844;27;98621;-80
2023/01/20 09:07:02;;;;;;;64.67;35.77;;;;;;;5.52;54.40;100107.34;5060421;27;98056;-79
2023/01/20 09:09:28;;;;;;;60.27;31.53;;;;;;;5.43;54.28;100116.16;5072780;27;97887;-80
2023/01/20 09:11:54;;;;;;;49.67;25.77;;;;;;;5.25;54.08;100102.59;5054833;27;96778;-81
2023/01/20 09:14:21;;;;;;;49.90;26.03;;;;;;;5.09;53.45;100108.06;5075465;27;96791;-81
2023/01/20 09:16:47;;;;;;;42.20;23.30;;;;;;;4.96;53.71;100107.34;5050733;27;101709;-81
2023/01/20 09:19:13;;;;;;;38.17;22.33;;;;;;;4.84;53.93;100109.28;5074306;27;101180;-80
2023/01/20 09:21:39;;;;;;;40.13;23.73;;;;;;;4.85;54.39;100124.84;5060602;27;97014;-79
2023/01/20 09:24:05;;;;;;;43.53;24.47;;;;;;;4.81;54.90;100131.00;5052252;27;100511;-81
2023/01/20 09:26:39;;;;;;;45.67;25.10;;;;;;;4.71;54.31;100126.78;5039073;27;101813;-81
2023/01/20 09:29:09;;;;;;;54.47;26.80;;;;;;;4.70;54.50;100125.91;5057890;27;102228;-81
2023/01/20 09:31:42;;;;;;;45.80;24.10;;;;;;;4.72;54.31;100118.97;5053383;27;96786;-82
2023/01/20 09:34:07;;;;;;;44.77;24.80;;;;;;;4.79;54.73;100124.94;5053077;27;97009;-81
2023/01/20 09:36:33;;;;;;;43.93;24.93;;;;;;;4.74;54.52;100116.34;5052899;27;101412;-80
2023/01/20 09:44:51;;;;;;;39.30;22.23;;;;;;;5.25;53.63;100121.69;5071253;27;97106;-81
2023/01/20 09:47:19;;;;;;;44.17;23.50;;;;;;;5.26;53.54;100097.38;5060168;27;101325;-83
2023/01/20 09:53:01;;;;;;;46.77;22.80;;;;;;;5.72;53.56;100112.22;5073943;27;97304;-83
2023/01/20 09:55:27;;;;;;;34.40;19.20;;;;;;;5.85;52.87;100092.91;5064698;27;96882;-82
2023/01/20 09:58:06;;;;;;;35.80;20.27;;;;;;;6.02;52.25;100108.25;5066858;27;101114;-83
2023/01/20 10:00:33;;;;;;;47.37;23.53;;;;;;;6.21;52.22;100110.50;5047108;27;101824;-82
2023/01/20 10:03:12;;;;;;;38.53;21.63;;;;;;;6.40;52.13;100108.38;5039224;27;97069;-81
2023/01/20 10:05:39;;;;;;;38.77;20.87;;;;;;;6.56;52.08;100115.84;5065749;27;97212;-84
2023/01/20 10:08:15;;;;;;;45.03;21.70;;;;;;;6.66;51.39;100105.22;5069046;27;101515;-81
2023/01/20 10:10:49;;;;;;;38.17;20.97;;;;;;;6.75;51.27;100105.91;5056079;27;100734;-83
2023/01/20 10:13:18;;;;;;;35.63;19.23;;;;;;;6.75;51.30;100092.84;5071804;27;97137;-84
2023/01/20 10:15:49;;;;;;;46.13;21.27;;;;;;;6.85;51.09;100103.09;5052225;27;96934;-81
2023/01/20 10:18:16;;;;;;;38.97;20.65;;;;;;;6.92;51.02;100097.72;5055663;27;101535;-82
2023/01/20 10:20:49;;;;;;;40.80;20.87;;;;;;;7.01;50.74;100084.44;5050904;27;99478;-82
2023/01/20 10:23:28;;;;;;;38.50;19.33;;;;;;;7.03;50.57;100085.25;5047804;27;98015;-82
2023/01/20 10:26:03;;;;;;;43.30;19.92;;;;;;;6.96;50.34;100072.41;5052804;27;97105;-83
2023/01/20 10:28:32;;;;;;;41.80;22.77;;;;;;;7.02;50.98;100078.31;5058992;27;101225;-83
2023/01/20 10:31:01;;;;;;;44.50;23.37;;;;;;;7.02;50.48;100073.09;5060734;27;100660;-83
2023/01/20 10:33:32;;;;;;;53.47;24.02;;;;;;;7.03;50.97;100093.06;5053091;27;98224;-82
2023/01/20 10:35:59;;;;;;;39.30;21.33;;;;;;;6.97;50.58;100093.22;5054192;27;97294;-82
2023/01/20 10:38:37;;;;;;;40.85;22.80;;;;;;;6.78;50.69;100077.13;5053536;27;101534;-83
2023/01/20 10:41:12;;;;;;;39.75;20.40;;;;;;;6.82;51.14;100096.19;5053811;27;101251;-82
2023/01/20 10:43:37;;;;;;;42.87;21.63;;;;;;;6.75;51.10;100107.66;5052523;27;97191;-83
2023/01/20 10:46:09;;;;;;;39.95;20.15;;;;;;;6.57;50.75;100095.84;5055130;27;97426;-83
2023/01/20 10:48:53;;;;;;;36.15;18.92;;;;;;;6.58;51.03;100113.22;5083330;27;98551;-84
2023/01/20 10:51:25;;;;;;;37.87;19.23;;;;;;;6.30;50.74;100082.50;5082474;27;101271;-82
2023/01/20 10:54:15;;;;;;;37.05;18.70;;;;;;;6.39;50.04;100114.50;5052622;27;97243;-83
2023/01/20 10:56:54;;;;;;;28.70;17.53;;;;;;;6.24;50.75;100098.25;5084838;27;97987;-83
2023/01/20 10:59:28;;;;;;;28.83;16.13;;;;;;;6.29;51.09;100113.81;5058822;27;98480;-84
2023/01/20 11:01:54;;;;;;;32.75;17.45;;;;;;;6.23;51.18;100104.38;5072004;27;97899;-84
2023/01/20 11:04:20;;;;;;;32.22;16.73;;;;;;;6.21;50.62;100116.56;5052729;27;97271;-84
2023/01/20 11:06:50;;;;;;;30.95;16.38;;;;;;;6.19;50.76;100123.53;5061476;27;97336;-84
2023/01/20 11:09:24;;;;;;;32.80;16.25;;;;;;;6.15;50.87;100128.88;5061711;27;101754;-83
2023/01/20 11:11:49;;;;;;;40.25;17.10;;;;;;;6.12;51.29;100124.56;5041259;27;101327;-82
2023/01/20 11:14:15;;;;;;;27.63;16.30;;;;;;;5.94;51.58;100110.13;5062710;27;97375;-83
2023/01/20 11:16:45;;;;;;;27.95;16.83;;;;;;;6.03;51.79;100128.19;5069941;27;96976;-83
2023/01/20 11:19:11;;;;;;;28.73;16.60;;;;;;;5.96;51.60;100134.41;5048930;27;101713;-83
2023/01/20 11:21:36;;;;;;;29.17;17.02;;;;;;;5.97;52.04;100140.50;5049934;27;100438;-84
2023/01/20 11:24:31;;;;;;;28.23;17.13;;;;;;;5.92;52.27;100142.28;5056815;27;96942;-83
2023/01/20 11:27:11;;;;;;;35.03;19.88;;;;;;;5.89;52.19;100138.84;5065336;27;97235;-84
2023/01/20 11:29:48;;;;;;;37.50;20.15;;;;;;;5.88;52.49;100144.94;5033859;27;101938;-83
2023/01/20 11:32:30;;;;;;;42.43;22.20;;;;;;;5.72;52.88;100127.00;5067257;27;98601;-82
2023/01/20 11:34:56;;;;;;;42.92;22.85;;;;;;;5.81;53.05;100143.31;5046175;27;96919;-83
2023/01/20 11:37:33;;;;;;;46.53;24.27;;;;;;;5.82;53.38;100146.81;5033182;27;97635;-83
2023/01/20 11:40:14;;;;;;;50.20;26.47;;;;;;;5.67;54.04;100133.16;5066909;27;97183;-83
2023/01/20 11:42:42;;;;;;;45.07;24.30;;;;;;;5.73;54.30;100137.41;5038923;27;102030;-84